createdAt,value
2024-01-03T00:02:07.532Z,12.36
2024-01-03T00:04:34.310Z,12.26
2024-01-03T00:07:00.810Z,12.05
2024-01-03T00:09:28.666Z,12.35
2024-01-03T00:11:55.168Z,12.21
2024-01-03T00:14:25.455Z,12.21
2024-01-03T00:16:51.937Z,12.04
2024-01-03T00:19:21.124Z,12.09
2024-01-03T00:21:48.072Z,12.34
2024-01-03T00:24:18.311Z,12.38
2024-01-03T00:26:47.153Z,12.58
2024-01-03T00:29:48.460Z,12.55
2024-01-03T00:32:15.186Z,12.48
2024-01-03T00:34:41.836Z,12.42
2024-01-03T00:37:22.547Z,12.40
2024-01-03T00:39:49.202Z,12.38
2024-01-03T00:42:17.121Z,12.38
2024-01-03T00:44:43.710Z,12.50
2024-01-03T00:47:10.308Z,12.32
2024-01-03T00:49:38.368Z,12.14
2024-01-03T00:52:06.491Z,12.48
2024-01-03T00:54:33.173Z,12.49
2024-01-03T00:57:00.761Z,12.57
2024-01-03T00:59:29.072Z,12.54
2024-01-03T01:01:56.139Z,12.10
2024-01-03T01:04:22.812Z,11.91
2024-01-03T01:06:49.406Z,12.21
2024-01-03T01:09:15.971Z,11.76
2024-01-03T01:11:42.446Z,11.94
2024-01-03T01:14:09.152Z,12.00
2024-01-03T01:16:36.942Z,12.15
2024-01-03T01:19:03.530Z,12.03
2024-01-03T01:21:30.045Z,12.01
2024-01-03T01:23:56.527Z,11.79
2024-01-03T01:26:23.089Z,11.71
2024-01-03T01:28:50.498Z,11.52
2024-01-03T01:31:16.944Z,11.74
2024-01-03T01:33:45.024Z,11.94
2024-01-03T01:36:11.797Z,11.65
2024-01-03T01:38:38.320Z,11.49
2024-01-03T01:41:05.045Z,11.69
2024-01-03T01:43:31.481Z,11.65
2024-01-03T01:45:58.288Z,11.67
2024-01-03T01:48:25.718Z,11.93
2024-01-03T01:50:54.242Z,11.65
2024-01-03T01:53:21.318Z,11.97
2024-01-03T01:55:48.396Z,11.82
2024-01-03T01:58:14.892Z,11.95
2024-01-03T02:00:42.901Z,12.10
2024-01-03T02:03:11.588Z,11.83
2024-01-03T02:05:38.350Z,12.07
2024-01-03T02:08:09.130Z,11.91
2024-01-03T02:10:35.996Z,11.99
2024-01-03T02:13:02.594Z,12.03
2024-01-03T02:15:29.061Z,11.68
2024-01-03T02:17:56.318Z,11.58
2024-01-03T02:20:25.059Z,11.76
2024-01-03T02:22:52.956Z,11.79
2024-01-03T02:25:19.423Z,11.99
2024-01-03T02:27:46.555Z,11.80
2024-01-03T02:30:13.361Z,11.84
2024-01-03T02:32:39.906Z,11.94
2024-01-03T02:35:06.921Z,11.75
2024-01-03T02:37:33.863Z,11.91
2024-01-03T02:40:01.653Z,12.08
2024-01-03T02:42:28.074Z,11.89
2024-01-03T02:44:54.532Z,11.96
2024-01-03T02:47:21.044Z,11.86
2024-01-03T02:49:47.768Z,11.86
2024-01-03T02:52:14.260Z,11.79
2024-01-03T02:54:40.668Z,11.94
2024-01-03T02:57:08.459Z,11.84
2024-01-03T02:59:34.973Z,11.91
2024-01-03T03:02:01.456Z,11.97
2024-01-03T03:04:27.929Z,11.99
2024-01-03T03:06:54.481Z,12.03
2024-01-03T03:09:21.138Z,11.87
2024-01-03T03:11:48.035Z,11.84
2024-01-03T03:14:16.334Z,11.60
2024-01-03T03:16:42.830Z,11.80
2024-01-03T03:19:09.616Z,11.88
2024-01-03T03:21:36.276Z,12.03
2024-01-03T03:24:02.917Z,11.89
2024-01-03T03:26:29.512Z,11.87
2024-01-03T03:28:56.587Z,11.76
2024-01-03T03:31:24.390Z,11.69
2024-01-03T03:33:50.959Z,11.87
2024-01-03T03:36:17.664Z,11.93
2024-01-03T03:38:44.387Z,11.98
2024-01-03T03:41:11.324Z,12.07
2024-01-03T03:43:38.007Z,11.67
2024-01-03T03:46:04.997Z,11.78
2024-01-03T03:48:33.047Z,11.75
2024-01-03T03:51:00.688Z,11.67
2024-01-03T03:53:27.259Z,11.75
2024-01-03T03:55:53.728Z,11.98
2024-01-03T03:58:20.191Z,11.71
2024-01-03T04:00:46.660Z,11.80
2024-01-03T04:03:13.265Z,11.74
2024-01-03T04:05:41.249Z,11.85
2024-01-03T04:08:08.426Z,11.89
2024-01-03T04:10:35.127Z,11.95
2024-01-03T04:13:01.829Z,11.84
2024-01-03T04:15:30.674Z,11.84
2024-01-03T04:17:57.988Z,11.56
2024-01-03T04:20:24.795Z,11.55
2024-01-03T04:22:52.721Z,11.61
2024-01-03T04:25:19.414Z,12.05
2024-01-03T04:27:45.875Z,11.85
2024-01-03T04:30:12.777Z,11.62
2024-01-03T04:32:44.930Z,12.05
2024-01-03T04:35:11.521Z,11.84
2024-01-03T04:37:38.133Z,11.58
2024-01-03T04:40:07.222Z,11.51
2024-01-03T04:42:33.777Z,11.83
2024-01-03T04:45:00.360Z,11.85
2024-01-03T04:47:27.688Z,11.90
2024-01-03T04:49:54.253Z,11.93
2024-01-03T04:52:20.734Z,11.77
2024-01-03T04:54:47.286Z,11.75
2024-01-03T04:57:17.265Z,11.77
2024-01-03T04:59:45.228Z,12.11
2024-01-03T05:02:11.712Z,12.08
2024-01-03T05:04:38.125Z,11.76
2024-01-03T05:07:05.104Z,11.73
2024-01-03T05:09:31.599Z,11.83
2024-01-03T05:11:58.270Z,11.83
2024-01-03T05:14:26.182Z,11.74
2024-01-03T05:16:52.745Z,11.93
2024-01-03T05:19:19.390Z,11.79
2024-01-03T05:21:45.886Z,11.98
2024-01-03T05:24:13.393Z,11.92
2024-01-03T05:26:40.051Z,12.00
2024-01-03T05:29:06.848Z,12.10
2024-01-03T05:31:34.642Z,11.71
2024-01-03T05:34:01.213Z,11.67
2024-01-03T05:36:27.928Z,11.89
2024-01-03T05:38:54.375Z,11.85
2024-01-03T05:41:20.919Z,11.82
2024-01-03T05:43:47.407Z,11.81
2024-01-03T05:46:13.837Z,11.57
2024-01-03T05:48:43.103Z,11.60
2024-01-03T05:51:10.010Z,11.51
2024-01-03T05:53:36.549Z,11.72
2024-01-03T05:56:03.066Z,11.74
2024-01-03T05:58:29.567Z,11.92
2024-01-03T06:00:56.049Z,11.67
2024-01-03T06:03:22.557Z,11.64
2024-01-03T06:05:50.413Z,11.43
2024-01-03T06:08:16.906Z,11.69
2024-01-03T06:10:43.421Z,11.58
2024-01-03T06:13:09.929Z,11.78
2024-01-03T06:15:36.419Z,11.85
2024-01-03T06:18:03.166Z,11.72
2024-01-03T06:20:29.784Z,11.73
2024-01-03T06:22:57.686Z,11.70
2024-01-03T06:25:24.127Z,11.53
2024-01-03T06:27:50.591Z,11.42
2024-01-03T06:30:17.396Z,11.62
2024-01-03T06:32:44.170Z,11.56
2024-01-03T06:35:13.417Z,11.52
2024-01-03T06:37:41.446Z,11.66
2024-01-03T06:40:10.462Z,11.72
2024-01-03T06:42:36.889Z,11.62
2024-01-03T06:45:04.054Z,11.62
2024-01-03T06:47:30.640Z,11.18
2024-01-03T06:49:57.333Z,11.45
2024-01-03T06:52:23.889Z,11.37
2024-01-03T06:54:50.632Z,11.53
2024-01-03T06:57:18.478Z,11.37
2024-01-03T06:59:44.933Z,11.33
2024-01-03T07:02:11.402Z,11.21
2024-01-03T07:04:37.833Z,11.35
2024-01-03T07:07:04.391Z,11.15
2024-01-03T07:09:30.862Z,11.18
2024-01-03T07:11:57.560Z,11.35
2024-01-03T07:14:25.491Z,11.14
2024-01-03T07:16:52.330Z,11.37
2024-01-03T07:19:19.134Z,11.14
2024-01-03T07:21:45.860Z,10.88
2024-01-03T07:24:12.728Z,11.18
2024-01-03T07:26:39.442Z,11.33
2024-01-03T07:29:05.956Z,11.17
2024-01-03T07:31:33.970Z,11.41
2024-01-03T07:34:00.650Z,11.23
2024-01-03T07:36:27.172Z,11.12
2024-01-03T07:38:53.660Z,11.50
2024-01-03T07:41:20.163Z,11.25
2024-01-03T07:43:46.652Z,11.38
2024-01-03T07:46:15.734Z,11.12
2024-01-03T07:48:43.781Z,11.55
2024-01-03T07:51:11.443Z,11.61
2024-01-03T07:53:37.957Z,11.60
2024-01-03T07:56:07.796Z,11.70
2024-01-03T07:58:34.204Z,11.42
2024-01-03T08:01:00.731Z,11.72
2024-01-03T08:03:27.156Z,11.57
2024-01-03T08:05:55.716Z,11.45
2024-01-03T08:08:22.359Z,11.21
2024-01-03T08:10:48.830Z,11.48
2024-01-03T08:13:15.699Z,11.69
2024-01-03T08:15:42.331Z,11.35
2024-01-03T08:20:35.582Z,11.77
2024-01-03T08:23:03.744Z,11.80
2024-01-03T08:25:30.402Z,11.73
2024-01-03T08:27:57.002Z,11.91
2024-01-03T08:30:23.598Z,11.94
2024-01-03T08:32:50.243Z,11.94
2024-01-03T08:35:16.796Z,11.87
2024-01-03T08:37:43.298Z,11.84
2024-01-03T08:40:12.062Z,11.77
2024-01-03T08:42:38.487Z,11.67
2024-01-03T08:45:05.808Z,11.66
2024-01-03T08:47:32.426Z,11.88
2024-01-03T08:49:59.193Z,11.89
2024-01-03T08:52:25.780Z,12.03
2024-01-03T08:54:52.289Z,11.93
2024-01-03T08:57:20.162Z,12.04
2024-01-03T08:59:46.650Z,11.81
2024-01-03T09:02:13.125Z,11.95
2024-01-03T09:04:41.173Z,12.00
2024-01-03T09:07:07.873Z,11.83
2024-01-03T09:09:34.445Z,12.05
2024-01-03T09:12:01.075Z,12.02
2024-01-03T09:14:28.993Z,11.76
2024-01-03T09:16:55.533Z,11.76
2024-01-03T09:19:22.124Z,11.76
2024-01-03T09:21:48.861Z,11.96
2024-01-03T09:24:15.821Z,11.99
2024-01-03T09:26:42.640Z,11.87
2024-01-03T09:29:09.150Z,12.59
2024-01-03T09:31:43.632Z,12.36
2024-01-03T09:34:10.385Z,12.04
2024-01-03T09:36:36.943Z,12.23
2024-01-03T09:39:03.751Z,12.41
2024-01-03T09:41:32.839Z,12.49
2024-01-03T09:44:00.349Z,12.04
2024-01-03T09:46:26.840Z,12.23
2024-01-03T09:48:55.123Z,12.21
2024-01-03T09:51:21.699Z,12.54
2024-01-03T09:53:51.841Z,12.62
2024-01-03T09:56:18.394Z,12.67
2024-01-03T09:58:46.168Z,12.86
2024-01-03T10:01:12.705Z,13.03
2024-01-03T10:03:39.441Z,12.97
2024-01-03T10:06:12.311Z,12.60
2024-01-03T10:08:42.474Z,12.60
2024-01-03T10:11:19.216Z,12.36
2024-01-03T10:13:45.701Z,12.56
2024-01-03T10:16:12.216Z,12.77
2024-01-03T10:18:38.888Z,12.41
2024-01-03T10:21:14.355Z,12.24
2024-01-03T10:23:42.032Z,12.39
2024-01-03T10:26:08.610Z,12.63
2024-01-03T10:28:35.083Z,13.10
2024-01-03T10:31:01.575Z,13.20
2024-01-03T10:33:28.500Z,13.69
2024-01-03T10:35:55.341Z,13.71
2024-01-03T10:38:24.391Z,13.62
2024-01-03T10:40:51.653Z,13.51
2024-01-03T10:43:18.293Z,13.48
2024-01-03T10:45:44.865Z,13.54
2024-01-03T10:48:11.896Z,13.46
2024-01-03T10:50:38.676Z,13.37
2024-01-03T10:53:09.839Z,13.45
2024-01-03T10:55:39.125Z,13.54
2024-01-03T10:58:13.049Z,13.30
2024-01-03T11:00:49.753Z,13.54
2024-01-03T11:03:26.826Z,13.51
2024-01-03T11:06:06.497Z,13.52
2024-01-03T11:08:42.580Z,13.68
2024-01-03T11:11:10.521Z,13.40
2024-01-03T11:13:40.199Z,13.44
2024-01-03T11:16:07.320Z,13.22
2024-01-03T11:18:49.646Z,13.16
2024-01-03T11:21:42.024Z,13.36
2024-01-03T11:24:54.158Z,13.80
2024-01-03T11:27:25.247Z,13.88
2024-01-03T11:29:53.940Z,13.94
2024-01-03T11:32:35.780Z,13.79
2024-01-03T11:35:06.290Z,13.71
2024-01-03T11:37:34.795Z,13.86
2024-01-03T11:40:01.310Z,13.11
2024-01-03T11:42:31.666Z,13.31
2024-01-03T11:45:03.462Z,13.25
2024-01-03T11:47:30.087Z,13.41
2024-01-03T11:49:57.082Z,13.75
2024-01-03T11:52:23.564Z,13.73
2024-01-03T11:54:50.736Z,14.10
2024-01-03T11:57:21.178Z,14.58
2024-01-03T11:59:49.150Z,14.55
2024-01-03T12:02:15.844Z,14.40
2024-01-03T12:04:44.292Z,13.89
2024-01-03T12:07:12.871Z,13.45
2024-01-03T12:09:39.603Z,13.84
2024-01-03T12:12:07.204Z,13.78
2024-01-03T12:14:33.799Z,13.24
2024-01-03T12:17:03.733Z,13.50
2024-01-03T12:19:31.727Z,13.20
2024-01-03T12:21:59.845Z,13.22
2024-01-03T12:24:39.277Z,13.22
2024-01-03T12:27:06.021Z,13.47
2024-01-03T12:29:32.801Z,13.20
2024-01-03T12:32:10.570Z,13.63
2024-01-03T12:34:37.447Z,13.60
2024-01-03T12:37:04.373Z,13.61
2024-01-03T12:39:34.533Z,13.66
2024-01-03T12:42:03.352Z,13.63
2024-01-03T12:44:31.781Z,13.51
2024-01-03T12:46:58.436Z,13.40
2024-01-03T12:49:26.738Z,13.47
2024-01-03T12:51:54.594Z,13.64
2024-01-03T12:54:21.150Z,13.61
2024-01-03T12:56:47.816Z,13.29
2024-01-03T12:59:14.408Z,13.32
2024-01-03T13:01:41.592Z,13.32
2024-01-03T13:04:08.305Z,13.45
2024-01-03T13:06:36.347Z,13.41
2024-01-03T13:09:03.037Z,13.43
2024-01-03T13:11:29.664Z,13.42
2024-01-03T13:13:56.575Z,13.43
2024-01-03T13:16:23.093Z,13.55
2024-01-03T13:18:50.050Z,13.53
2024-01-03T13:21:16.643Z,13.35
2024-01-03T13:23:44.783Z,13.34
2024-01-03T13:26:12.073Z,13.26
2024-01-03T13:28:39.401Z,13.16
2024-01-03T13:31:06.144Z,13.43
2024-01-03T13:33:33.142Z,13.58
2024-01-03T13:35:59.980Z,13.11
2024-01-03T13:38:26.691Z,13.32
2024-01-03T13:40:57.329Z,13.49
2024-01-03T13:43:23.772Z,13.37
2024-01-03T13:45:50.264Z,13.61
2024-01-03T13:48:16.888Z,13.87
2024-01-03T13:50:43.520Z,13.39
2024-01-03T13:53:10.310Z,13.59
2024-01-03T13:55:37.582Z,13.48
2024-01-03T13:58:06.123Z,13.64
2024-01-03T14:00:33.475Z,13.73
2024-01-03T14:03:00.082Z,13.70
2024-01-03T14:05:30.529Z,13.34
2024-01-03T14:07:58.682Z,13.55
2024-01-03T14:10:25.537Z,13.68
2024-01-03T14:12:52.259Z,13.76
2024-01-03T14:15:20.219Z,13.53
2024-01-03T14:17:47.141Z,13.12
2024-01-03T14:20:13.907Z,13.07
2024-01-03T14:22:40.863Z,12.84
2024-01-03T14:25:07.803Z,12.54
2024-01-03T14:27:34.421Z,12.60
2024-01-03T14:30:01.188Z,12.66
2024-01-03T14:32:29.177Z,13.05
2024-01-03T14:34:55.752Z,13.03
2024-01-03T14:37:22.470Z,12.86
2024-01-03T14:39:49.027Z,13.17
2024-01-03T14:42:15.838Z,13.19
2024-01-03T14:44:42.449Z,13.18
2024-01-03T14:47:09.115Z,12.99
2024-01-03T14:49:37.218Z,13.01
2024-01-03T14:52:04.315Z,12.69
2024-01-03T14:54:31.083Z,12.81
2024-01-03T14:56:58.336Z,12.82
2024-01-03T14:59:25.253Z,12.70
2024-01-03T15:01:52.811Z,12.77
2024-01-03T15:04:19.693Z,12.46
2024-01-03T15:06:56.057Z,12.58
2024-01-03T15:09:22.974Z,12.37
2024-01-03T15:11:49.513Z,12.39
2024-01-03T15:14:16.933Z,12.39
2024-01-03T15:16:43.645Z,12.33
2024-01-03T15:19:10.729Z,12.32
2024-01-03T15:21:38.174Z,12.38
2024-01-03T15:24:09.942Z,12.17
2024-01-03T15:26:36.737Z,12.02
2024-01-03T15:29:03.416Z,12.26
2024-01-03T15:31:29.936Z,12.19
2024-01-03T15:33:56.652Z,12.28
2024-01-03T15:36:23.507Z,12.18
2024-01-03T15:38:52.279Z,12.14
2024-01-03T15:41:20.443Z,12.21
2024-01-03T15:43:47.043Z,12.32
2024-01-03T15:46:16.606Z,12.39
2024-01-03T15:48:44.562Z,12.20
2024-01-03T15:51:11.348Z,12.42
2024-01-03T15:53:38.206Z,12.03
2024-01-03T15:56:05.089Z,11.93
2024-01-03T15:58:33.432Z,12.18
2024-01-03T16:01:00.256Z,12.16
2024-01-03T16:03:27.044Z,12.21
2024-01-03T16:05:53.754Z,12.11
2024-01-03T16:08:20.402Z,11.96
2024-01-03T16:10:47.100Z,12.05
2024-01-03T16:13:13.598Z,12.28
2024-01-03T16:15:41.827Z,12.29
2024-01-03T16:18:08.552Z,12.14
2024-01-03T16:20:35.792Z,12.17
2024-01-03T16:23:02.371Z,12.13
2024-01-03T16:25:29.185Z,12.16
2024-01-03T16:27:55.710Z,12.02
2024-01-03T16:30:22.489Z,12.17
2024-01-03T16:32:50.622Z,11.75
2024-01-03T16:35:17.451Z,12.04
2024-01-03T16:37:44.514Z,11.94
2024-01-03T16:40:16.519Z,11.81
2024-01-03T16:42:43.162Z,11.97
2024-01-03T16:45:10.540Z,11.84
2024-01-03T16:47:50.184Z,11.97
2024-01-03T16:50:18.074Z,12.02
2024-01-03T16:52:44.672Z,11.97
2024-01-03T16:55:11.337Z,11.70
2024-01-03T16:57:37.905Z,11.68
2024-01-03T17:00:06.112Z,12.06
2024-01-03T17:02:32.724Z,11.99
2024-01-03T17:04:59.321Z,11.94
2024-01-03T17:07:27.451Z,11.99
2024-01-03T17:09:54.671Z,12.14
2024-01-03T17:12:21.566Z,12.26
2024-01-03T17:14:48.425Z,12.13
2024-01-03T17:17:15.065Z,12.22
2024-01-03T17:19:41.773Z,12.28
2024-01-03T17:22:08.398Z,12.16
2024-01-03T17:24:36.389Z,12.13
2024-01-03T17:27:03.248Z,12.17
2024-01-03T17:29:29.882Z,12.24
2024-01-03T17:31:56.688Z,11.88
2024-01-03T17:34:23.350Z,11.96
2024-01-03T17:36:49.912Z,11.95
2024-01-03T17:39:16.631Z,11.89
2024-01-03T17:41:44.677Z,11.93
2024-01-03T17:44:11.610Z,12.12
2024-01-03T17:46:38.936Z,11.83
2024-01-03T17:49:05.777Z,11.68
2024-01-03T17:51:32.503Z,11.85
2024-01-03T17:53:59.918Z,11.89
2024-01-03T17:56:28.068Z,11.97
2024-01-03T17:58:57.188Z,12.09
2024-01-03T18:01:24.321Z,11.89
2024-01-03T18:03:51.101Z,12.10
2024-01-03T18:06:17.781Z,11.96
2024-01-03T18:08:45.328Z,11.80
2024-01-03T18:11:12.139Z,11.86
2024-01-03T18:13:38.652Z,11.87
2024-01-03T18:16:07.342Z,11.74
2024-01-03T18:18:34.103Z,11.74
2024-01-03T18:21:01.044Z,11.58
2024-01-03T18:23:27.676Z,11.57
2024-01-03T18:25:54.258Z,11.63
2024-01-03T18:28:20.809Z,11.71
2024-01-03T18:30:47.616Z,11.53
2024-01-03T18:33:15.916Z,11.72
2024-01-03T18:35:42.550Z,11.49
2024-01-03T18:38:09.597Z,11.60
2024-01-03T18:40:36.397Z,11.70
2024-01-03T18:43:02.967Z,11.66
2024-01-03T18:45:29.818Z,11.52
2024-01-03T18:47:58.964Z,11.46
2024-01-03T18:50:27.152Z,11.44
2024-01-03T18:52:53.686Z,11.39
2024-01-03T18:55:20.342Z,11.32
2024-01-03T18:57:46.853Z,11.29
2024-01-03T19:00:13.954Z,11.28
2024-01-03T19:02:41.366Z,11.44
2024-01-03T19:05:08.571Z,11.35
2024-01-03T19:07:36.859Z,11.28
2024-01-03T19:10:03.721Z,11.32
2024-01-03T19:12:30.831Z,11.17
2024-01-03T19:14:57.589Z,11.24
2024-01-03T19:17:24.421Z,11.50
2024-01-03T19:19:51.189Z,11.68
2024-01-03T19:22:18.206Z,11.57
2024-01-03T19:24:46.609Z,11.29
2024-01-03T19:27:13.253Z,11.33
2024-01-03T19:29:40.145Z,11.48
2024-01-03T19:32:07.540Z,11.22
2024-01-03T19:34:35.215Z,11.47
2024-01-03T19:37:03.299Z,11.34
2024-01-03T19:39:29.888Z,11.45
2024-01-03T19:41:58.457Z,11.63
2024-01-03T19:44:25.628Z,11.38
2024-01-03T19:46:52.083Z,11.56
2024-01-03T19:49:19.588Z,11.53
2024-01-03T19:51:46.433Z,11.41
2024-01-03T19:54:13.221Z,11.50
2024-01-03T19:56:41.070Z,11.24
2024-01-03T19:59:09.279Z,11.27
2024-01-03T20:01:35.932Z,11.43
2024-01-03T20:04:02.711Z,11.42
2024-01-03T20:06:29.621Z,11.52
2024-01-03T20:08:56.573Z,11.18
2024-01-03T20:11:23.472Z,11.43
2024-01-03T20:13:50.067Z,11.54
2024-01-03T20:16:18.118Z,11.41
2024-01-03T20:18:45.101Z,11.54
2024-01-03T20:21:12.417Z,11.46
2024-01-03T20:23:40.922Z,11.59
2024-01-03T20:26:14.538Z,11.71
2024-01-03T20:28:43.477Z,11.54
2024-01-03T20:31:11.591Z,11.25
2024-01-03T20:33:39.843Z,11.51
2024-01-03T20:36:07.552Z,11.64
2024-01-03T20:38:34.801Z,11.51
2024-01-03T20:41:03.154Z,11.36
2024-01-03T20:43:31.784Z,11.15
2024-01-03T20:45:59.988Z,11.34
2024-01-03T20:48:26.839Z,11.42
2024-01-03T20:50:56.004Z,11.29
2024-01-03T20:53:22.528Z,11.22
2024-01-03T20:55:49.092Z,11.14
2024-01-03T20:58:15.772Z,11.28
2024-01-03T21:00:42.361Z,11.43
2024-01-03T21:03:11.239Z,11.57
2024-01-03T21:05:38.745Z,11.64
2024-01-03T21:08:07.011Z,11.23
2024-01-03T21:10:33.523Z,11.41
2024-01-03T21:12:59.998Z,11.43
2024-01-03T21:15:26.604Z,11.13
2024-01-03T21:17:53.784Z,11.38
2024-01-03T21:20:20.389Z,11.44
2024-01-03T21:22:47.566Z,11.55
2024-01-03T21:25:16.007Z,11.26
2024-01-03T21:27:48.817Z,11.41
2024-01-03T21:30:18.792Z,11.57
2024-01-03T21:32:46.025Z,11.61
2024-01-03T21:35:13.158Z,11.42
2024-01-03T21:37:40.142Z,11.20
2024-01-03T21:40:08.946Z,11.39
2024-01-03T21:42:39.699Z,11.52
2024-01-03T21:45:06.659Z,11.49
2024-01-03T21:47:33.861Z,11.56
2024-01-03T21:50:01.770Z,11.47
2024-01-03T21:52:28.728Z,11.15
2024-01-03T21:54:55.309Z,11.38
2024-01-03T21:57:22.152Z,11.56
2024-01-03T21:59:50.388Z,11.55
2024-01-03T22:02:17.409Z,11.73
2024-01-03T22:04:43.913Z,11.66
2024-01-03T22:07:10.487Z,11.10
2024-01-03T22:09:37.067Z,11.25
2024-01-03T22:12:03.981Z,11.09
2024-01-03T22:14:30.795Z,10.54
2024-01-03T22:16:58.781Z,10.10
2024-01-03T22:19:25.642Z,9.72
2024-01-03T22:21:52.504Z,9.48
2024-01-03T22:24:20.517Z,9.47
2024-01-03T22:26:48.137Z,9.33
2024-01-03T22:29:14.810Z,9.41
2024-01-03T22:31:41.589Z,9.39
2024-01-03T22:34:10.132Z,9.50
2024-01-03T22:36:36.869Z,9.73
2024-01-03T22:39:05.022Z,9.87
2024-01-03T22:41:31.527Z,10.02
2024-01-03T22:43:58.133Z,9.95
2024-01-03T22:46:24.941Z,10.02
2024-01-03T22:48:51.985Z,10.18
2024-01-03T22:51:20.367Z,10.01
2024-01-03T22:53:47.003Z,10.13
2024-01-03T22:56:13.654Z,10.00
2024-01-03T22:58:40.130Z,9.89
2024-01-03T23:01:07.140Z,9.86
2024-01-03T23:03:33.758Z,10.15
2024-01-03T23:06:00.825Z,10.24
2024-01-03T23:08:28.954Z,10.59
2024-01-03T23:10:55.819Z,10.47
2024-01-03T23:13:22.822Z,10.53
2024-01-03T23:15:50.025Z,10.55
2024-01-03T23:18:22.177Z,10.65
2024-01-03T23:20:50.588Z,10.50
2024-01-03T23:23:18.597Z,10.42
2024-01-03T23:25:46.762Z,10.43
2024-01-03T23:28:14.355Z,10.55
2024-01-03T23:30:41.897Z,10.67
2024-01-03T23:33:08.608Z,10.76
2024-01-03T23:35:35.913Z,10.63
2024-01-03T23:38:02.944Z,10.51
2024-01-03T23:40:29.649Z,10.54
2024-01-03T23:42:57.736Z,10.42
2024-01-03T23:45:24.856Z,10.53
2024-01-03T23:47:51.508Z,10.60
2024-01-03T23:50:18.196Z,10.46
2024-01-03T23:52:45.707Z,10.43
2024-01-03T23:55:13.465Z,10.43
2024-01-03T23:57:40.128Z,10.62
